createdAt,value
2016-06-25T00:00:23.111Z,17.17
2016-06-25T00:01:24.747Z,17.2
2016-06-25T00:02:23.089Z,17.13
2016-06-25T00:03:23.197Z,17.18
2016-06-25T00:04:23.163Z,17.13
2016-06-25T00:05:24.096Z,17.15
2016-06-25T00:06:23.063Z,17.17
2016-06-25T00:07:23.153Z,17.06
2016-06-25T00:08:24.005Z,17.05
2016-06-25T00:09:24.182Z,17.03
2016-06-25T00:10:24.010Z,17.05
2016-06-25T00:11:24.111Z,16.99
2016-06-25T00:12:23.950Z,17.05
2016-06-25T00:13:24.123Z,16.95
2016-06-25T00:14:23.006Z,16.97
2016-06-25T00:15:22.882Z,17.07
2016-06-25T00:16:23.821Z,17.06
2016-06-25T00:17:23.865Z,16.97
2016-06-25T00:18:24.279Z,17
2016-06-25T00:19:22.972Z,16.92
2016-06-25T00:20:23.888Z,16.88
2016-06-25T00:21:24.298Z,17
2016-06-25T00:22:23.730Z,16.91
2016-06-25T00:23:23.065Z,16.95
2016-06-25T00:24:25.046Z,16.92
2016-06-25T00:25:24.059Z,16.94
2016-06-25T00:26:23.875Z,16.91
2016-06-25T00:27:22.830Z,16.94
2016-06-25T00:28:22.783Z,16.9
2016-06-25T00:29:22.811Z,16.85
2016-06-25T00:30:25.868Z,16.88
2016-06-25T00:31:26.038Z,16.81
2016-06-25T00:32:25.762Z,16.84
2016-06-25T00:33:25.921Z,16.85
2016-06-25T00:34:26.101Z,16.84
2016-06-25T00:35:25.865Z,16.84
2016-06-25T00:36:26.058Z,16.88
2016-06-25T00:37:25.861Z,16.77
2016-06-25T00:38:26.048Z,16.8
2016-06-25T00:39:26.053Z,16.8
2016-06-25T00:40:26.070Z,16.8
2016-06-25T00:41:26.018Z,16.7
2016-06-25T00:42:26.049Z,16.72
2016-06-25T00:43:25.991Z,16.72
2016-06-25T00:44:26.039Z,16.7
2016-06-25T00:45:26.271Z,16.66
2016-06-25T00:46:26.389Z,16.59
2016-06-25T00:47:26.136Z,16.7
2016-06-25T00:48:26.261Z,16.59
2016-06-25T00:49:26.170Z,16.62
2016-06-25T00:50:26.057Z,16.49
2016-06-25T00:51:26.179Z,16.57
2016-06-25T00:52:26.144Z,16.57
2016-06-25T00:53:26.222Z,16.48
2016-06-25T00:54:26.297Z,16.49
2016-06-25T00:55:27.208Z,16.51
2016-06-25T00:56:25.959Z,16.4
2016-06-25T00:57:26.198Z,16.47
2016-06-25T00:58:25.973Z,16.44
2016-06-25T00:59:26.604Z,16.48
2016-06-25T01:00:25.931Z,16.51
2016-06-25T01:01:26.001Z,16.55
2016-06-25T01:02:26.219Z,16.48
2016-06-25T01:03:26.066Z,16.51
2016-06-25T01:04:25.871Z,16.47
2016-06-25T01:05:26.004Z,16.48
2016-06-25T01:06:26.247Z,16.49
2016-06-25T01:07:25.806Z,16.44
2016-06-25T01:08:26.099Z,16.47
2016-06-25T01:09:26.173Z,16.47
2016-06-25T01:10:25.926Z,16.39
2016-06-25T01:11:26.090Z,16.44
2016-06-25T01:12:26.228Z,16.39
2016-06-25T01:13:26.154Z,16.54
2016-06-25T01:14:26.227Z,16.44
2016-06-25T01:15:25.935Z,16.33
2016-06-25T01:16:26.168Z,16.34
2016-06-25T01:17:26.411Z,16.33
2016-06-25T01:18:26.775Z,16.34
2016-06-25T01:19:26.847Z,16.39
